Vyborg, Russia
Current Conditions -  °F | °C
As of 7:20 AM on Friday 19 Dec 2014 (Local Time) from EFLP Reporting Station
Moderate Fog Moderate Fog  
Wind Chill: 30°   Ceiling: 100
Heat Index: 34°   Visibility: 0.5mi
Dew Point: 34°   Wind: 5mph
Humidity: 100%   Direction: 180°S
Pressure: 29.23"   Gusts: NA
Location:  60.7°N, 28.75°E
Report Text: EFLP 190420Z AUTO 18004KT 100V260 0800 R06/P1500N R24/P1500N FGOVC001 01/01 Q0990
Loading
Personal Weather Stations






























Interactive Weather Map New forecast layout! Learn more

10-Day Weather Forecast

Advertisements
Track Severe Weather on mobile